EST,Max TemperatureF,Mean TemperatureF,Min TemperatureF,Max Dew PointF,MeanDew PointF,Min DewpointF,Max Humidity, Mean Humidity, Min Humidity, Max Sea Level PressureIn, Mean Sea Level PressureIn, Min Sea Level PressureIn, Max VisibilityMiles, Mean VisibilityMiles, Min VisibilityMiles, Max Wind SpeedMPH, Mean Wind SpeedMPH, Max Gust SpeedMPH,PrecipitationIn, CloudCover, Events, WindDirDegrees
2013-1-1,77,60,44,57,54,45,100,80,50,30.24,30.12,30.05,10,9,3,9,2,17,0.00,4,,218
2013-1-2,75,63,51,68,62,52,100,94,78,30.09,30.04,30.01,10,7,0,9,2,17,0.00,6,Fog,244
2013-1-3,64,58,51,64,60,52,100,99,94,30.23,30.12,30.04,10,5,0,12,2,21,0.12,8,Fog-Rain,44
2013-1-4,62,56,50,54,51,46,100,86,72,30.34,30.26,30.20,10,10,7,8,6,,0.00,6,,36
2013-1-5,71,58,44,59,51,43,100,79,55,30.33,30.27,30.21,10,10,5,10,5,,0.00,2,Rain,68
2013-1-6,75,67,59,64,60,57,100,89,69,30.23,30.15,30.10,10,9,7,8,4,,0.05,6,Rain,47
2013-1-7,68,60,51,57,51,45,100,74,52,30.25,30.20,30.15,10,10,10,15,7,18,0.00,6,,57
2013-1-8,80,68,57,68,62,54,100,81,58,30.25,30.19,30.16,10,10,7,12,7,16,0.00,4,,74
2013-1-9,82,75,68,70,68,64,100,83,54,30.32,30.25,30.20,10,10,7,9,6,,0.00,5,,93
2013-1-10,84,76,68,70,65,59,100,76,45,30.32,30.27,30.23,10,9,7,13,5,18,0.00,5,,102
2013-1-11,82,70,59,64,61,57,100,81,45,30.27,30.21,30.16,10,9,2,10,2,,0.00,3,,153
2013-1-12,82,68,55,64,61,55,100,82,48,30.20,30.14,30.09,10,8,0,8,1,,0.00,3,Fog,157
2013-1-13,80,70,59,64,63,59,100,81,51,30.18,30.11,30.08,10,10,4,8,2,,0.00,4,,148
2013-1-14,78,68,57,64,60,55,100,81,47,30.21,30.16,30.12,10,9,0,12,1,18,0.00,3,Fog,199
2013-1-15,80,66,53,64,59,54,100,83,48,30.16,30.11,30.06,10,9,5,12,1,,0.00,3,,223
2013-1-16,80,68,55,64,60,55,100,83,51,30.11,30.06,30.01,10,10,5,9,1,,0.00,3,,224
2013-1-17,66,58,50,64,55,41,100,89,59,30.18,30.05,29.99,10,7,2,21,6,31,0.11,6,Rain,257
2013-1-18,62,48,35,46,41,32,100,71,55,30.35,30.29,30.20,10,10,10,16,7,24,0.00,5,,30
2013-1-19,73,60,46,55,50,41,93,73,50,30.32,30.24,30.17,10,10,10,14,7,18,0.00,3,,49
2013-1-20,73,64,55,57,55,52,100,77,50,30.21,30.14,30.07,10,9,7,10,4,,0.00,7,,37
2013-1-21,71,62,53,55,53,46,100,76,53,30.13,30.09,30.05,10,10,10,9,2,,0.00,4,,306
2013-1-22,62,52,42,46,37,30,77,56,30,30.31,30.22,30.11,10,10,10,9,3,,0.00,0,,18
2013-1-23,66,50,33,46,36,28,100,69,26,30.41,30.34,30.30,10,10,10,10,2,,0.00,0,,359
2013-1-24,68,52,35,55,45,34,100,86,52,30.36,30.30,30.27,10,9,0,15,2,23,0.00,1,Fog,281
2013-1-25,73,58,44,57,48,43,100,81,38,30.33,30.27,30.21,10,7,0,12,1,,0.00,3,Fog,258
2013-1-26,71,56,41,59,51,41,100,87,60,30.29,30.24,30.20,10,6,0,10,2,16,0.00,4,Fog,271
2013-1-27,78,62,46,61,54,46,100,81,42,30.33,30.28,30.24,10,6,0,9,2,16,0.00,4,Fog,75
2013-1-28,80,68,57,63,60,57,100,80,45,30.35,30.29,30.23,10,10,7,10,4,16,0.00,4,,99
2013-1-29,82,70,57,66,63,57,100,82,45,30.26,30.17,30.10,10,8,0,13,3,17,0.00,5,Fog,159
2013-1-30,82,70,55,68,63,54,100,75,51,30.10,29.97,29.88,10,10,5,21,5,37,0.01,2,Rain,173
2013-1-31,60,48,37,55,40,28,100,64,31,30.27,30.14,29.97,10,10,4,13,5,18,0.06,2,Rain,314